Time,TemperatureF,DewpointF,PressureIn,WindDirection,WindDirectionDegrees,WindSpeedMPH,WindSpeedGustMPH,Humidity,HourlyPrecipIn,Conditions,Clouds,dailyrainin,SoftwareType,DateUTC
2013-02-13 00:00:00,31.0,23.0,-100.00,SW,219,0.0,5.0,73,-99.99,,,-99.99,,2013-02-13 05:00:00,
2013-02-13 00:22:00,31.0,23.0,-100.00,SW,219,0.0,5.0,73,-99.99,,,-99.99,,2013-02-13 05:22:00,
2013-02-13 00:32:00,31.0,23.0,-100.00,SW,219,0.0,5.0,73,-99.99,,,-99.99,,2013-02-13 05:32:00,
2013-02-13 00:42:00,31.0,23.0,-100.00,SW,219,0.0,5.0,73,-99.99,,,-99.99,,2013-02-13 05:42:00,
2013-02-13 00:52:00,31.0,23.0,-100.00,SW,219,0.0,5.0,73,-99.99,,,-99.99,,2013-02-13 05:52:00,
2013-02-13 01:00:00,31.0,22.0,-100.00,WSW,237,0.0,5.0,72,-99.99,,,-99.99,,2013-02-13 06:00:00,
2013-02-13 01:32:00,31.0,22.0,-100.00,WSW,237,0.0,5.0,72,-99.99,,,-99.99,,2013-02-13 06:32:00,
2013-02-13 01:42:00,31.0,22.0,-100.00,WSW,237,0.0,5.0,72,-99.99,,,-99.99,,2013-02-13 06:42:00,
2013-02-13 01:52:00,31.0,22.0,-100.00,WSW,237,0.0,5.0,72,-99.99,,,-99.99,,2013-02-13 06:52:00,
2013-02-13 02:00:00,29.0,22.0,-100.00,WSW,237,0.0,3.0,77,-99.99,,,-99.99,,2013-02-13 07:00:00,
2013-02-13 02:22:00,29.0,22.0,-100.00,WSW,237,0.0,3.0,77,-99.99,,,-99.99,,2013-02-13 07:22:00,
2013-02-13 02:32:00,29.0,22.0,-100.00,WSW,237,0.0,3.0,77,-99.99,,,-99.99,,2013-02-13 07:32:00,
2013-02-13 02:42:00,29.0,22.0,-100.00,WSW,237,0.0,3.0,77,-99.99,,,-99.99,,2013-02-13 07:42:00,
2013-02-13 02:52:00,29.0,22.0,-100.00,WSW,237,0.0,3.0,77,-99.99,,,-99.99,,2013-02-13 07:52:00,
2013-02-13 03:00:00,29.0,22.0,-100.00,NW,324,0.0,0.0,75,-99.99,,,-99.99,,2013-02-13 08:00:00,
2013-02-13 03:22:00,29.0,22.0,-100.00,NW,324,0.0,0.0,75,-99.99,,,-99.99,,2013-02-13 08:22:00,
2013-02-13 03:32:00,29.0,22.0,-100.00,NW,324,0.0,0.0,75,-99.99,,,-99.99,,2013-02-13 08:32:00,
2013-02-13 03:43:00,29.0,22.0,-100.00,NW,324,0.0,0.0,75,-99.99,,,-99.99,,2013-02-13 08:43:00,
2013-02-13 03:52:00,29.0,22.0,-100.00,NW,324,0.0,0.0,75,-99.99,,,-99.99,,2013-02-13 08:52:00,
2013-02-13 04:00:00,29.0,22.0,-100.00,NW,305,0.0,0.0,75,-99.99,,,-99.99,,2013-02-13 09:00:00,
2013-02-13 04:21:00,29.0,22.0,-100.00,NW,305,0.0,0.0,75,-99.99,,,-99.99,,2013-02-13 09:21:00,
2013-02-13 04:32:00,29.0,22.0,-100.00,NW,305,0.0,0.0,75,-99.99,,,-99.99,,2013-02-13 09:32:00,
2013-02-13 04:42:00,29.0,22.0,-100.00,NW,305,0.0,0.0,75,-99.99,,,-99.99,,2013-02-13 09:42:00,
2013-02-13 04:52:00,29.0,22.0,-100.00,NW,305,0.0,0.0,75,-99.99,,,-99.99,,2013-02-13 09:52:00,
2013-02-13 05:00:00,28.0,22.0,-100.00,WSW,239,0.0,0.0,80,-99.99,,,-99.99,,2013-02-13 10:00:00,
2013-02-13 05:22:00,28.0,22.0,-100.00,WSW,239,0.0,0.0,80,-99.99,,,-99.99,,2013-02-13 10:22:00,
2013-02-13 05:32:00,28.0,22.0,-100.00,WSW,239,0.0,0.0,80,-99.99,,,-99.99,,2013-02-13 10:32:00,
2013-02-13 05:42:00,28.0,22.0,-100.00,WSW,239,0.0,0.0,80,-99.99,,,-99.99,,2013-02-13 10:42:00,
2013-02-13 05:52:00,28.0,22.0,-100.00,WSW,239,0.0,0.0,80,-99.99,,,-99.99,,2013-02-13 10:52:00,
2013-02-13 06:00:00,27.0,21.0,-100.00,WSW,249,0.0,0.0,82,-99.99,,,-99.99,,2013-02-13 11:00:00,
2013-02-13 06:22:00,27.0,21.0,-100.00,WSW,249,0.0,0.0,82,-99.99,,,-99.99,,2013-02-13 11:22:00,
2013-02-13 06:32:00,27.0,21.0,-100.00,WSW,249,0.0,0.0,82,-99.99,,,-99.99,,2013-02-13 11:32:00,
2013-02-13 06:42:00,27.0,21.0,-100.00,WSW,249,0.0,0.0,82,-99.99,,,-99.99,,2013-02-13 11:42:00,
2013-02-13 06:52:00,27.0,21.0,-100.00,WSW,249,0.0,0.0,82,-99.99,,,-99.99,,2013-02-13 11:52:00,
2013-02-13 07:00:00,26.0,21.0,-100.00,WSW,238,0.0,0.0,84,-99.99,,,-99.99,,2013-02-13 12:00:00,
2013-02-13 07:22:00,26.0,21.0,-100.00,WSW,238,0.0,0.0,84,-99.99,,,-99.99,,2013-02-13 12:22:00,
2013-02-13 07:32:00,26.0,21.0,-100.00,WSW,238,0.0,0.0,84,-99.99,,,-99.99,,2013-02-13 12:32:00,
2013-02-13 07:42:00,26.0,21.0,-100.00,WSW,238,0.0,0.0,84,-99.99,,,-99.99,,2013-02-13 12:42:00,
2013-02-13 07:52:00,26.0,21.0,-100.00,WSW,238,0.0,0.0,84,-99.99,,,-99.99,,2013-02-13 12:52:00,
2013-02-13 08:00:00,31.0,25.0,-100.00,NW,317,0.0,0.0,78,-99.99,,,-99.99,,2013-02-13 13:00:00,
2013-02-13 08:21:00,31.0,25.0,-100.00,NW,317,0.0,0.0,78,-99.99,,,-99.99,,2013-02-13 13:21:00,
2013-02-13 08:32:00,31.0,25.0,-100.00,NW,317,0.0,0.0,78,-99.99,,,-99.99,,2013-02-13 13:32:00,
2013-02-13 08:42:00,31.0,25.0,-100.00,NW,317,0.0,0.0,78,-99.99,,,-99.99,,2013-02-13 13:42:00,
2013-02-13 08:52:00,31.0,25.0,-100.00,NW,317,0.0,0.0,78,-99.99,,,-99.99,,2013-02-13 13:52:00,
2013-02-13 09:00:00,37.0,24.0,-100.00,NE,43,0.0,0.0,59,-99.99,,,-99.99,,2013-02-13 14:00:00,
2013-02-13 09:22:00,37.0,24.0,-100.00,NE,43,0.0,0.0,59,-99.99,,,-99.99,,2013-02-13 14:22:00,
2013-02-13 09:32:00,37.0,24.0,-100.00,NE,43,0.0,0.0,59,-99.99,,,-99.99,,2013-02-13 14:32:00,
2013-02-13 09:42:00,37.0,24.0,-100.00,NE,43,0.0,0.0,59,-99.99,,,-99.99,,2013-02-13 14:42:00,
2013-02-13 09:52:00,37.0,24.0,-100.00,NE,43,0.0,0.0,59,-99.99,,,-99.99,,2013-02-13 14:52:00,
2013-02-13 10:00:00,38.0,22.0,-100.00,North,9,3.0,7.0,52,-99.99,,,-99.99,,2013-02-13 15:00:00,
2013-02-13 10:21:00,38.0,22.0,-100.00,North,9,3.0,7.0,52,-99.99,,,-99.99,,2013-02-13 15:21:00,
2013-02-13 10:32:00,38.0,22.0,-100.00,North,9,3.0,7.0,52,-99.99,,,-99.99,,2013-02-13 15:32:00,
2013-02-13 10:42:00,38.0,22.0,-100.00,North,9,3.0,7.0,52,-99.99,,,-99.99,,2013-02-13 15:42:00,
2013-02-13 10:52:00,38.0,22.0,-100.00,North,9,3.0,7.0,52,-99.99,,,-99.99,,2013-02-13 15:52:00,
2013-02-13 11:00:00,39.0,23.0,-100.00,SE,129,0.0,9.0,52,-99.99,,,-99.99,,2013-02-13 16:00:00,
2013-02-13 11:21:00,39.0,23.0,-100.00,SE,129,0.0,9.0,52,-99.99,,,-99.99,,2013-02-13 16:21:00,
2013-02-13 11:32:00,39.0,23.0,-100.00,SE,129,0.0,9.0,52,-99.99,,,-99.99,,2013-02-13 16:32:00,
2013-02-13 11:42:00,39.0,23.0,-100.00,SE,129,0.0,9.0,52,-99.99,,,-99.99,,2013-02-13 16:42:00,
2013-02-13 11:52:00,39.0,23.0,-100.00,SE,129,0.0,9.0,52,-99.99,,,-99.99,,2013-02-13 16:52:00,
2013-02-13 12:00:00,39.0,26.0,-100.00,ESE,111,2.0,8.0,60,-99.99,,,-99.99,,2013-02-13 17:00:00,
2013-02-13 12:21:00,39.0,26.0,-100.00,ESE,111,2.0,8.0,60,-99.99,,,-99.99,,2013-02-13 17:21:00,
2013-02-13 12:32:00,39.0,26.0,-100.00,ESE,111,2.0,8.0,60,-99.99,,,-99.99,,2013-02-13 17:32:00,
2013-02-13 12:42:00,39.0,26.0,-100.00,ESE,111,2.0,8.0,60,-99.99,,,-99.99,,2013-02-13 17:42:00,
2013-02-13 12:52:00,39.0,26.0,-100.00,ESE,111,2.0,8.0,60,-99.99,,,-99.99,,2013-02-13 17:52:00,
2013-02-13 13:00:00,40.0,26.0,-100.00,ENE,65,5.0,7.0,57,-99.99,,,-99.99,,2013-02-13 18:00:00,
2013-02-13 13:23:00,40.0,26.0,-100.00,ENE,65,5.0,7.0,57,-99.99,,,-99.99,,2013-02-13 18:23:00,
2013-02-13 13:32:00,40.0,26.0,-100.00,ENE,65,5.0,7.0,57,-99.99,,,-99.99,,2013-02-13 18:32:00,
2013-02-13 13:42:00,40.0,26.0,-100.00,ENE,65,5.0,7.0,57,-99.99,,,-99.99,,2013-02-13 18:42:00,
2013-02-13 13:52:00,40.0,26.0,-100.00,ENE,65,5.0,7.0,57,-99.99,,,-99.99,,2013-02-13 18:52:00,
2013-02-13 14:00:00,40.0,29.0,-100.00,East,82,8.0,11.0,65,-99.99,,,-99.99,,2013-02-13 19:00:00,
2013-02-13 14:32:00,40.0,29.0,-100.00,East,82,8.0,11.0,65,-99.99,,,-99.99,,2013-02-13 19:32:00,
2013-02-13 14:42:00,40.0,29.0,-100.00,East,82,8.0,11.0,65,-99.99,,,-99.99,,2013-02-13 19:42:00,
2013-02-13 14:52:00,40.0,29.0,-100.00,East,82,8.0,11.0,65,-99.99,,,-99.99,,2013-02-13 19:52:00,
2013-02-13 15:00:00,41.0,29.0,-100.00,ENE,71,5.0,11.0,61,-99.99,,,-99.99,,2013-02-13 20:00:00,
2013-02-13 15:22:00,41.0,29.0,-100.00,ENE,71,5.0,11.0,61,-99.99,,,-99.99,,2013-02-13 20:22:00,
2013-02-13 15:32:00,41.0,29.0,-100.00,ENE,71,5.0,11.0,61,-99.99,,,-99.99,,2013-02-13 20:32:00,
2013-02-13 15:42:00,41.0,29.0,-100.00,ENE,71,5.0,11.0,61,-99.99,,,-99.99,,2013-02-13 20:42:00,
2013-02-13 15:52:00,41.0,29.0,-100.00,ENE,71,5.0,11.0,61,-99.99,,,-99.99,,2013-02-13 20:52:00,
2013-02-13 16:00:00,38.0,29.0,-100.00,ENE,61,5.0,11.0,69,-99.99,,,-99.99,,2013-02-13 21:00:00,
2013-02-13 16:21:00,38.0,29.0,-100.00,ENE,61,5.0,11.0,69,-99.99,,,-99.99,,2013-02-13 21:21:00,
2013-02-13 16:32:00,38.0,29.0,-100.00,ENE,61,5.0,11.0,69,-99.99,,,-99.99,,2013-02-13 21:32:00,
2013-02-13 16:42:00,38.0,29.0,-100.00,ENE,61,5.0,11.0,69,-99.99,,,-99.99,,2013-02-13 21:42:00,
2013-02-13 16:52:00,38.0,29.0,-100.00,ENE,61,5.0,11.0,69,-99.99,,,-99.99,,2013-02-13 21:52:00,
2013-02-13 17:00:00,37.0,28.0,-100.00,ENE,71,7.0,11.0,70,-99.99,,,-99.99,,2013-02-13 22:00:00,
2013-02-13 17:21:00,37.0,28.0,-100.00,ENE,71,7.0,11.0,70,-99.99,,,-99.99,,2013-02-13 22:21:00,
2013-02-13 17:32:00,37.0,28.0,-100.00,ENE,71,7.0,11.0,70,-99.99,,,-99.99,,2013-02-13 22:32:00,
2013-02-13 17:42:00,37.0,28.0,-100.00,ENE,71,7.0,11.0,70,-99.99,,,-99.99,,2013-02-13 22:42:00,
2013-02-13 17:52:00,37.0,28.0,-100.00,ENE,71,7.0,11.0,70,-99.99,,,-99.99,,2013-02-13 22:52:00,
2013-02-13 18:00:00,37.0,28.0,-100.00,NE,47,5.0,10.0,70,-99.99,,,-99.99,,2013-02-13 23:00:00,
2013-02-13 18:22:00,37.0,28.0,-100.00,NE,47,5.0,10.0,70,-99.99,,,-99.99,,2013-02-13 23:22:00,
2013-02-13 18:32:00,37.0,28.0,-100.00,NE,47,5.0,10.0,70,-99.99,,,-99.99,,2013-02-13 23:32:00,
2013-02-13 18:42:00,37.0,28.0,-100.00,NE,47,5.0,10.0,70,-99.99,,,-99.99,,2013-02-13 23:42:00,
2013-02-13 18:52:00,37.0,28.0,-100.00,NE,47,5.0,10.0,70,-99.99,,,-99.99,,2013-02-13 23:52:00,
2013-02-13 19:00:00,37.0,29.0,-100.00,East,84,4.0,11.0,71,-99.99,,,-99.99,,2013-02-14 00:00:00,
2013-02-13 19:22:00,37.0,29.0,-100.00,East,84,4.0,11.0,71,-99.99,,,-99.99,,2013-02-14 00:22:00,
2013-02-13 19:32:00,37.0,29.0,-100.00,East,84,4.0,11.0,71,-99.99,,,-99.99,,2013-02-14 00:32:00,
2013-02-13 19:43:00,37.0,29.0,-100.00,East,84,4.0,11.0,71,-99.99,,,-99.99,,2013-02-14 00:43:00,
2013-02-13 19:52:00,37.0,29.0,-100.00,East,84,4.0,11.0,71,-99.99,,,-99.99,,2013-02-14 00:52:00,
2013-02-13 20:00:00,33.0,30.0,-100.00,NE,50,3.0,10.0,88,-99.99,,,-99.99,,2013-02-14 01:00:00,
2013-02-13 20:21:00,33.0,30.0,-100.00,NE,50,3.0,10.0,88,-99.99,,,-99.99,,2013-02-14 01:21:00,
2013-02-13 20:32:00,33.0,30.0,-100.00,NE,50,3.0,10.0,88,-99.99,,,-99.99,,2013-02-14 01:32:00,
2013-02-13 20:42:00,33.0,30.0,-100.00,NE,50,3.0,10.0,88,-99.99,,,-99.99,,2013-02-14 01:42:00,
2013-02-13 20:52:00,33.0,30.0,-100.00,NE,50,3.0,10.0,88,-99.99,,,-99.99,,2013-02-14 01:52:00,
2013-02-13 21:00:00,32.0,31.0,-100.00,NNW,342,0.0,6.0,95,-99.99,,,-99.99,,2013-02-14 02:00:00,
2013-02-13 21:21:00,32.0,31.0,-100.00,NNW,342,0.0,6.0,95,-99.99,,,-99.99,,2013-02-14 02:21:00,
2013-02-13 21:32:00,32.0,31.0,-100.00,NNW,342,0.0,6.0,95,-99.99,,,-99.99,,2013-02-14 02:32:00,
2013-02-13 21:42:00,32.0,31.0,-100.00,NNW,342,0.0,6.0,95,-99.99,,,-99.99,,2013-02-14 02:42:00,
2013-02-13 21:52:00,32.0,31.0,-100.00,NNW,342,0.0,6.0,95,-99.99,,,-99.99,,2013-02-14 02:52:00,
2013-02-13 22:00:00,32.0,31.0,-100.00,North,10,2.0,5.0,96,-99.99,,,-99.99,,2013-02-14 03:00:00,
2013-02-13 22:22:00,32.0,31.0,-100.00,North,10,2.0,5.0,96,-99.99,,,-99.99,,2013-02-14 03:22:00,
2013-02-13 22:32:00,32.0,31.0,-100.00,North,10,2.0,5.0,96,-99.99,,,-99.99,,2013-02-14 03:32:00,
2013-02-13 22:42:00,32.0,31.0,-100.00,North,10,2.0,5.0,96,-99.99,,,-99.99,,2013-02-14 03:42:00,
2013-02-13 22:52:00,32.0,31.0,-100.00,North,10,2.0,5.0,96,-99.99,,,-99.99,,2013-02-14 03:52:00,
2013-02-13 23:00:00,32.0,31.0,-100.00,NNW,333,2.0,6.0,97,-99.99,,,-99.99,,2013-02-14 04:00:00,
2013-02-13 23:21:00,32.0,31.0,-100.00,NNW,333,2.0,6.0,97,-99.99,,,-99.99,,2013-02-14 04:21:00,
2013-02-13 23:32:00,32.0,31.0,-100.00,NNW,333,2.0,6.0,97,-99.99,,,-99.99,,2013-02-14 04:32:00,
2013-02-13 23:42:00,32.0,31.0,-100.00,NNW,333,2.0,6.0,97,-99.99,,,-99.99,,2013-02-14 04:42:00,
2013-02-13 23:52:00,32.0,31.0,-100.00,NNW,333,2.0,6.0,97,-99.99,,,-99.99,,2013-02-14 04:52:00,